Аэропорт: Мирный. Мирный

ICAO: UERR

METAR:
2019-07-23 18:00:00
UERR 231800Z 05002MPS 2000 HZ NSC 12/05 Q1010 R25/CLRD60 NOSIG RMK QFE726
METAR:
2019-07-23 17:00:00
TAF UERR 231700Z 2318/2418 07004MPS 1500 HZ NSC TEMPO 2318/2401 0300 HZ